createdAt,value
2022-12-13T10:17:22.249Z,96.00
2022-12-13T10:22:18.900Z,97.20
2022-12-13T10:27:15.395Z,97.60
2022-12-13T10:32:14.692Z,96.70
2022-12-13T10:37:29.731Z,96.40
2022-12-13T10:42:26.849Z,94.90
2022-12-13T10:47:25.953Z,94.40
2022-12-13T10:52:43.225Z,93.60
2022-12-13T10:57:37.869Z,93.00
2022-12-13T11:02:35.070Z,92.20
2022-12-13T11:07:32.686Z,90.80
2022-12-13T11:12:28.412Z,90.90
2022-12-13T11:17:26.127Z,90.50
2022-12-13T11:22:25.977Z,87.60
2022-12-13T11:27:46.781Z,86.70
2022-12-13T11:32:58.771Z,86.40
2022-12-13T11:38:03.486Z,85.10
2022-12-13T11:43:03.996Z,85.00
2022-12-13T11:48:08.639Z,81.20
2022-12-13T11:53:24.126Z,79.50
2022-12-13T12:03:46.156Z,77.50
2022-12-13T12:08:47.381Z,73.50
2022-12-13T12:13:51.467Z,70.80
2022-12-13T12:18:45.913Z,69.60
2022-12-13T12:24:11.458Z,69.30
2022-12-13T12:29:40.817Z,66.60
2022-12-13T12:34:47.243Z,64.50
2022-12-13T12:40:04.990Z,64.20
2022-12-13T12:45:17.535Z,62.90
2022-12-13T12:50:36.887Z,62.60
2022-12-13T12:55:51.209Z,62.50
2022-12-13T13:00:53.672Z,64.10
2022-12-13T13:06:00.172Z,66.60
2022-12-13T13:11:01.795Z,67.30
2022-12-13T13:15:58.577Z,68.90
2022-12-13T13:21:35.812Z,69.20
2022-12-13T13:26:36.411Z,70.00
2022-12-13T13:32:01.576Z,68.30
2022-12-13T13:37:01.770Z,68.30
2022-12-13T13:42:17.381Z,71.20
2022-12-13T13:47:15.221Z,73.30
2022-12-13T13:52:25.246Z,75.40
2022-12-13T13:58:08.791Z,79.00
2022-12-13T14:03:45.493Z,80.30
2022-12-13T14:08:50.647Z,82.10
2022-12-13T14:14:21.848Z,85.60
2022-12-13T14:19:56.568Z,86.90
2022-12-13T14:25:04.845Z,87.80
2022-12-13T14:30:00.340Z,88.20
2022-12-13T14:34:54.566Z,89.50
2022-12-13T14:39:49.380Z,90.70
2022-12-13T14:44:44.400Z,90.80
2022-12-13T14:49:49.124Z,91.40
2022-12-13T14:54:48.636Z,91.80
2022-12-13T14:59:50.832Z,92.40
2022-12-13T15:04:45.012Z,92.90
2022-12-13T15:09:41.167Z,93.30
2022-12-13T15:14:35.046Z,93.70
2022-12-13T15:19:35.057Z,94.20
2022-12-13T15:24:36.405Z,94.50
2022-12-13T15:29:35.716Z,94.70
2022-12-13T15:34:37.435Z,95.30
2022-12-13T15:39:32.756Z,96.00
2022-12-13T15:44:29.297Z,96.50
2022-12-13T15:49:28.077Z,98.10
2022-12-13T15:54:23.712Z,98.30
2022-12-13T15:59:27.352Z,98.10
2022-12-13T16:04:25.177Z,98.00
2022-12-13T16:09:21.704Z,98.00
2022-12-13T16:14:49.711Z,98.40
2022-12-13T16:19:44.476Z,98.80
2022-12-13T16:24:38.418Z,99.00
2022-12-13T16:29:32.023Z,99.40
2022-12-13T16:34:27.078Z,99.80
2022-12-13T16:39:20.822Z,99.90
2022-12-13T16:44:23.735Z,99.90
2022-12-13T16:49:23.192Z,99.90
2022-12-13T16:54:19.471Z,99.90
2022-12-13T16:59:15.375Z,99.90
2022-12-13T17:04:17.873Z,99.90
2022-12-13T17:09:13.469Z,99.90
2022-12-13T17:14:08.956Z,99.90
2022-12-13T17:19:02.899Z,99.90
2022-12-13T17:23:57.697Z,99.90
2022-12-13T17:28:51.537Z,99.90
2022-12-13T17:33:47.105Z,99.90
2022-12-13T17:38:44.112Z,99.90
2022-12-13T17:43:38.428Z,99.90
2022-12-13T17:48:39.887Z,99.90
